Time;durP1;ratioP1;P1;durP2;ratioP2;P2;SDS_P1;SDS_P2;PMS_P1;PMS_P2;Temp;Humidity;BMP_temperature;BMP_pressure;BME280_temperature;BME280_humidity;BME280_pressure;Samples;Min_cycle;Max_cycle;Signal;HPM_P1;HPM_P2
2021/10/11 00:02:15;;;;;;;7.60;1.85;;;;;;;13.14;73.03;102684.91;5051966;28;20154;-47
2021/10/11 00:04:40;;;;;;;10.27;1.50;;;;;;;13.07;73.69;102681.13;5052017;28;20017;-45
2021/10/11 00:07:08;;;;;;;13.07;1.75;;;;;;;13.05;71.91;102680.41;5052072;28;20107;-46
2021/10/11 00:09:34;;;;;;;13.85;1.90;;;;;;;12.99;72.58;102684.59;5057425;28;20020;-46
2021/10/11 00:11:59;;;;;;;13.73;1.95;;;;;;;12.94;72.41;102687.72;5071720;28;20025;-46
2021/10/11 00:14:25;;;;;;;12.13;1.60;;;;;;;12.88;71.88;102677.53;5075712;28;20081;-46
2021/10/11 00:16:51;;;;;;;9.30;2.10;;;;;;;12.84;73.09;102678.00;5075841;28;20097;-49
2021/10/11 00:19:16;;;;;;;15.77;1.80;;;;;;;12.79;72.01;102688.41;5058784;28;20134;-46
2021/10/11 00:21:41;;;;;;;10.95;1.80;;;;;;;12.77;72.55;102691.28;5055696;28;20033;-49
2021/10/11 00:24:07;;;;;;;12.40;2.13;;;;;;;12.73;72.58;102688.00;5063907;28;20475;-46
2021/10/11 00:26:32;;;;;;;10.55;1.92;;;;;;;12.71;71.95;102691.84;5075500;28;20056;-47
2021/10/11 00:28:57;;;;;;;13.45;2.10;;;;;;;12.71;71.50;102681.06;5075505;28;20063;-44
2021/10/11 00:31:23;;;;;;;11.23;2.20;;;;;;;12.66;71.75;102684.19;5075321;28;20051;-45
2021/10/11 00:33:48;;;;;;;11.73;2.13;;;;;;;12.62;71.55;102684.66;5075474;28;20024;-51
2021/10/11 00:36:14;;;;;;;11.80;2.10;;;;;;;12.57;71.82;102685.13;5075422;28;20479;-49
2021/10/11 00:38:40;;;;;;;10.02;1.60;;;;;;;12.55;71.71;102678.16;5075315;28;20099;-48
2021/10/11 00:41:05;;;;;;;11.43;1.88;;;;;;;12.47;72.86;102677.03;5060098;28;20063;-46
2021/10/11 00:43:31;;;;;;;9.30;1.75;;;;;;;12.44;72.38;102669.25;5066300;28;20052;-48
2021/10/11 00:45:56;;;;;;;7.00;1.80;;;;;;;12.47;72.11;102668.94;5075140;28;20025;-47
2021/10/11 00:48:21;;;;;;;13.02;1.67;;;;;;;12.45;71.51;102681.78;5056550;28;20024;-50
2021/10/11 00:50:47;;;;;;;14.05;1.95;;;;;;;12.48;71.14;102681.47;5056995;28;20052;-47
2021/10/11 00:53:14;;;;;;;8.68;2.17;;;;;;;12.43;71.31;102683.78;5058364;28;20371;-48
2021/10/11 00:55:40;;;;;;;11.27;1.63;;;;;;;12.42;70.35;102681.19;5054971;28;20033;-49
2021/10/11 00:58:05;;;;;;;10.80;1.52;;;;;;;12.41;71.04;102690.31;5055053;28;20063;-47
2021/10/11 01:00:30;;;;;;;7.88;1.80;;;;;;;12.36;71.77;102682.66;5054843;28;20139;-47
2021/10/11 01:02:56;;;;;;;12.90;1.95;;;;;;;12.33;71.03;102685.66;5055115;28;20048;-47
2021/10/11 01:05:21;;;;;;;11.75;2.10;;;;;;;12.34;70.47;102689.19;5054770;28;20025;-48
2021/10/11 01:07:47;;;;;;;12.68;1.73;;;;;;;12.38;69.62;102682.53;5074688;28;20050;-50
2021/10/11 01:10:12;;;;;;;7.75;1.50;;;;;;;12.34;69.19;102684.66;5056535;28;20029;-47
2021/10/11 01:12:38;;;;;;;12.88;1.88;;;;;;;12.35;69.90;102680.09;5075199;28;20039;-49
2021/10/11 01:15:04;;;;;;;16.23;2.10;;;;;;;12.35;68.84;102680.97;5074464;28;20107;-48
2021/10/11 01:17:29;;;;;;;8.65;1.60;;;;;;;12.32;69.96;102675.84;5072738;28;20055;-49
2021/10/11 01:19:58;;;;;;;10.75;2.10;;;;;;;12.30;69.83;102683.25;5036459;28;20068;-47
2021/10/11 01:22:35;;;;;;;8.43;1.73;;;;;;;12.29;68.16;102679.69;5054795;28;20037;-50
2021/10/11 01:25:00;;;;;;;8.50;1.33;;;;;;;12.27;69.48;102679.00;5054152;28;20104;-49
2021/10/11 01:27:28;;;;;;;10.05;2.00;;;;;;;12.25;68.70;102689.09;5054457;28;20443;-49
2021/10/11 01:29:55;;;;;;;13.52;2.00;;;;;;;12.19;69.70;102696.91;5054336;28;20419;-49
2021/10/11 01:32:21;;;;;;;12.00;1.63;;;;;;;12.14;68.98;102693.81;5054467;28;20033;-46
2021/10/11 01:34:46;;;;;;;16.25;2.10;;;;;;;12.12;69.57;102685.03;5054373;28;20439;-48
2021/10/11 01:37:11;;;;;;;6.45;1.20;;;;;;;12.06;70.05;102691.88;5054262;28;20025;-47
2021/10/11 01:39:37;;;;;;;8.35;1.65;;;;;;;12.00;69.88;102682.47;5054162;28;20017;-50
2021/10/11 01:42:02;;;;;;;10.68;2.25;;;;;;;11.98;69.10;102684.50;5053876;28;20020;-49
2021/10/11 01:44:28;;;;;;;8.27;1.80;;;;;;;11.97;69.23;102674.69;5066409;28;20153;-49
2021/10/11 01:46:53;;;;;;;15.32;2.85;;;;;;;11.95;69.62;102673.97;5054161;28;20021;-49
2021/10/11 01:49:18;;;;;;;12.15;1.80;;;;;;;11.93;69.86;102675.13;5053985;28;20038;-46
2021/10/11 01:51:44;;;;;;;14.77;2.58;;;;;;;11.99;69.16;102675.41;5054707;28;20090;-49
2021/10/11 01:54:09;;;;;;;18.73;1.65;;;;;;;12.00;68.77;102676.25;5053818;28;20112;-49
2021/10/11 01:56:34;;;;;;;14.07;1.50;;;;;;;11.97;69.69;102674.69;5053849;28;20021;-46
2021/10/11 01:58:59;;;;;;;10.18;1.60;;;;;;;11.97;69.56;102674.69;5053775;28;20154;-46
2021/10/11 02:01:25;;;;;;;11.48;1.83;;;;;;;11.98;69.60;102679.09;5053786;28;20120;-47
2021/10/11 02:03:50;;;;;;;15.93;1.90;;;;;;;11.99;69.47;102670.00;5053747;28;20108;-47
2021/10/11 02:06:15;;;;;;;7.07;1.38;;;;;;;12.00;69.83;102676.25;5053754;28;20026;-48
2021/10/11 02:08:41;;;;;;;14.18;1.75;;;;;;;11.97;69.90;102680.06;5053660;28;20025;-49
2021/10/11 02:11:06;;;;;;;8.65;1.35;;;;;;;11.94;69.48;102671.44;5053511;28;20435;-47
2021/10/11 02:13:31;;;;;;;15.65;1.75;;;;;;;11.92;69.81;102671.56;5053609;28;20052;-45
2021/10/11 02:15:57;;;;;;;15.60;2.65;;;;;;;11.92;69.43;102676.97;5053714;28;20033;-47
2021/10/11 02:18:22;;;;;;;7.18;1.30;;;;;;;11.89;70.41;102674.56;5053357;28;20476;-46
2021/10/11 02:20:47;;;;;;;8.88;1.60;;;;;;;11.91;69.19;102683.38;5053683;28;20032;-45
2021/10/11 02:23:13;;;;;;;6.78;1.80;;;;;;;11.88;69.48;102677.44;5053286;28;20033;-47
2021/10/11 02:25:38;;;;;;;13.00;1.60;;;;;;;11.86;68.89;102669.47;5053236;28;20085;-46
2021/10/11 02:28:04;;;;;;;5.68;1.33;;;;;;;11.84;68.91;102666.88;5035278;28;20036;-46
2021/10/11 02:30:30;;;;;;;11.02;1.52;;;;;;;11.79;69.50;102668.31;5044976;28;20518;-47
2021/10/11 02:32:55;;;;;;;7.63;1.65;;;;;;;11.74;69.37;102665.19;5071956;28;20029;-47
2021/10/11 02:35:20;;;;;;;11.15;1.60;;;;;;;11.70;69.65;102661.09;5072341;28;20032;-47
2021/10/11 02:37:46;;;;;;;8.13;1.90;;;;;;;11.71;68.91;102654.69;5072992;28;20020;-49
2021/10/11 02:40:12;;;;;;;9.40;1.20;;;;;;;11.69;69.14;102649.47;5072859;28;20470;-46
2021/10/11 02:42:37;;;;;;;11.23;1.40;;;;;;;11.71;68.91;102641.22;5072890;28;20060;-46
2021/10/11 02:45:03;;;;;;;7.30;1.55;;;;;;;11.76;68.63;102638.94;5073027;28;20029;-46
2021/10/11 02:47:29;;;;;;;8.27;1.40;;;;;;;11.70;68.96;102637.66;5072807;28;20028;-47
2021/10/11 02:49:54;;;;;;;8.15;1.20;;;;;;;11.66;69.74;102630.84;5067136;28;20025;-46
2021/10/11 02:52:20;;;;;;;9.50;2.08;;;;;;;11.63;69.86;102626.59;5052539;28;20124;-46
2021/10/11 02:54:45;;;;;;;7.72;2.13;;;;;;;11.58;71.11;102628.88;5052598;28;20044;-46
2021/10/11 02:57:10;;;;;;;8.35;1.42;;;;;;;11.53;71.09;102625.78;5040935;28;20536;-46
2021/10/11 02:59:36;;;;;;;13.85;1.80;;;;;;;11.49;71.82;102635.16;5072456;28;20357;-47
2021/10/11 03:02:01;;;;;;;10.23;1.42;;;;;;;11.44;72.51;102632.03;5061601;28;20029;-47
2021/10/11 03:04:26;;;;;;;8.48;1.48;;;;;;;11.40;72.12;102618.00;5070138;28;20032;-45
2021/10/11 03:06:52;;;;;;;10.60;1.77;;;;;;;11.39;73.96;102631.59;5068099;28;20029;-48
2021/10/11 03:09:17;;;;;;;7.18;1.30;;;;;;;11.38;73.64;102621.84;5052558;28;20066;-48
2021/10/11 03:11:42;;;;;;;8.65;1.42;;;;;;;11.40;74.38;102620.69;5052270;28;20029;-49
2021/10/11 03:14:08;;;;;;;5.25;1.33;;;;;;;11.45;75.19;102628.31;5052375;28;20070;-48
2021/10/11 03:16:34;;;;;;;7.78;1.67;;;;;;;11.50;75.57;102622.50;5052488;28;20032;-48
2021/10/11 03:18:59;;;;;;;9.23;1.60;;;;;;;11.53;75.67;102625.78;5056259;28;20021;-47
2021/10/11 03:21:25;;;;;;;8.45;1.83;;;;;;;11.56;75.39;102630.03;5072492;28;20032;-46
2021/10/11 03:23:51;;;;;;;11.63;1.48;;;;;;;11.57;76.52;102621.78;5072291;28;20035;-47
2021/10/11 03:26:17;;;;;;;9.43;1.58;;;;;;;11.60;77.24;102621.50;5071432;28;20137;-49
2021/10/11 03:28:43;;;;;;;8.88;1.63;;;;;;;11.57;76.74;102613.69;5060904;28;20061;-47
2021/10/11 03:31:08;;;;;;;8.82;1.90;;;;;;;11.57;76.84;102620.94;5052006;28;20410;-47
2021/10/11 03:33:34;;;;;;;5.32;1.27;;;;;;;11.58;77.22;102619.94;5052051;28;20029;-50
2021/10/11 03:35:59;;;;;;;10.15;1.70;;;;;;;11.57;77.10;102620.94;5052135;28;20472;-47
2021/10/11 03:38:25;;;;;;;9.32;1.55;;;;;;;11.54;77.42;102624.78;5052073;28;20104;-49
2021/10/11 03:40:50;;;;;;;9.82;1.83;;;;;;;11.55;77.78;102617.53;5052126;28;20029;-50
2021/10/11 03:43:15;;;;;;;11.05;1.60;;;;;;;11.55;77.97;102618.38;5059686;28;20115;-47
2021/10/11 03:45:41;;;;;;;7.47;1.20;;;;;;;11.57;77.87;102621.78;5056706;28;20056;-51
2021/10/11 03:48:06;;;;;;;8.35;1.80;;;;;;;11.58;78.64;102620.78;5055705;28;20025;-47
2021/10/11 03:50:32;;;;;;;10.02;1.83;;;;;;;11.57;78.73;102623.66;5061844;28;20052;-51
2021/10/11 03:52:57;;;;;;;9.30;1.60;;;;;;;11.58;79.30;102622.63;5095129;28;20027;-46
2021/10/11 03:55:22;;;;;;;11.35;1.88;;;;;;;11.59;79.44;102625.19;5090525;28;20021;-47
2021/10/11 03:57:48;;;;;;;11.80;1.63;;;;;;;11.67;78.85;102612.84;5057608;28;20033;-48
2021/10/11 04:00:13;;;;;;;6.05;1.52;;;;;;;11.79;77.71;102608.97;5056025;28;20025;-48
2021/10/11 04:02:39;;;;;;;13.88;1.70;;;;;;;11.90;77.15;102614.22;5068141;28;20494;-46
2021/10/11 04:05:06;;;;;;;10.30;1.60;;;;;;;12.00;77.63;102609.63;5058190;28;20046;-46
2021/10/11 04:07:31;;;;;;;7.68;1.95;;;;;;;12.12;75.97;102610.28;5081551;28;20168;-50
2021/10/11 04:10:00;;;;;;;16.38;1.50;;;;;;;12.22;75.80;102615.66;5095932;28;20024;-47
2021/10/11 04:12:33;;;;;;;11.07;2.28;;;;;;;12.35;74.48;102617.97;5096197;28;20118;-47
2021/10/11 04:15:00;;;;;;;7.25;2.15;;;;;;;12.46;74.05;102612.41;5096426;28;20024;-48
2021/10/11 04:17:25;;;;;;;13.60;1.65;;;;;;;12.50;74.24;102622.72;5095921;28;20034;-48
2021/10/11 04:19:50;;;;;;;11.98;1.80;;;;;;;12.55;74.80;102621.44;5073851;28;20033;-48
2021/10/11 04:22:15;;;;;;;16.00;2.05;;;;;;;12.57;75.52;102625.69;5083180;28;20024;-46
2021/10/11 04:24:41;;;;;;;12.30;1.98;;;;;;;12.60;74.67;102628.09;5079301;28;20028;-47
2021/10/11 04:27:06;;;;;;;12.13;1.77;;;;;;;12.65;75.12;102627.63;5073868;28;20021;-46
2021/10/11 04:29:32;;;;;;;11.13;2.00;;;;;;;12.69;75.47;102620.91;5082600;28;20055;-48
2021/10/11 04:31:57;;;;;;;11.30;1.90;;;;;;;12.72;75.39;102624.19;5084972;28;20037;-46
2021/10/11 04:34:22;;;;;;;12.07;1.85;;;;;;;12.69;76.52;102618.22;5059304;28;20029;-46
2021/10/11 04:36:48;;;;;;;9.70;1.38;;;;;;;12.66;76.94;102615.81;5048941;28;20032;-47
2021/10/11 04:39:13;;;;;;;15.90;2.35;;;;;;;12.67;76.17;102612.13;5055774;28;20035;-47
2021/10/11 04:41:38;;;;;;;12.25;1.90;;;;;;;12.69;76.52;102615.50;5061030;28;20030;-48
2021/10/11 04:44:04;;;;;;;10.55;2.10;;;;;;;12.69;76.74;102613.69;5062061;28;20116;-47
2021/10/11 04:46:29;;;;;;;14.48;2.40;;;;;;;12.68;77.04;102606.56;5073154;28;20033;-51
2021/10/11 04:48:55;;;;;;;15.80;2.47;;;;;;;12.68;77.22;102611.97;5040255;28;20471;-47
2021/10/11 04:51:20;;;;;;;7.90;2.03;;;;;;;12.69;78.10;102618.22;5074722;28;20024;-48
2021/10/11 04:53:45;;;;;;;12.20;1.92;;;;;;;12.67;77.87;102609.44;5072360;28;20471;-47
2021/10/11 04:56:11;;;;;;;15.30;3.10;;;;;;;12.68;78.10;102611.13;5074921;28;20025;-47
2021/10/11 04:58:36;;;;;;;19.17;3.08;;;;;;;12.67;77.74;102612.13;5063619;28;20431;-48
2021/10/11 05:01:01;;;;;;;10.75;1.90;;;;;;;12.71;77.16;102613.50;5077826;28;20136;-50
2021/10/11 05:03:27;;;;;;;9.75;1.73;;;;;;;12.71;76.88;102622.47;5057754;28;20112;-48
2021/10/11 05:05:52;;;;;;;6.82;2.08;;;;;;;12.73;77.23;102619.63;5054591;28;20052;-48
2021/10/11 05:08:17;;;;;;;12.13;2.53;;;;;;;12.74;76.55;102626.72;5054578;28;20403;-50
2021/10/11 05:10:43;;;;;;;10.90;2.10;;;;;;;12.78;76.02;102622.72;5054765;28;20079;-47
2021/10/11 05:13:08;;;;;;;12.50;1.95;;;;;;;12.82;75.45;102623.25;5074529;28;20025;-47
2021/10/11 05:15:33;;;;;;;8.23;2.10;;;;;;;12.81;75.35;102621.56;5082039;28;20032;-48
2021/10/11 05:17:59;;;;;;;10.95;2.05;;;;;;;12.83;74.76;102622.25;5076480;28;20130;-47
2021/10/11 05:20:31;;;;;;;15.73;2.15;;;;;;;12.81;74.45;102621.56;5094010;28;20028;-47
2021/10/11 05:22:56;;;;;;;12.15;1.73;;;;;;;12.84;72.94;102622.09;5093639;28;20134;-48
2021/10/11 05:25:22;;;;;;;8.70;1.77;;;;;;;12.79;72.57;102618.16;5094097;28;20119;-47
2021/10/11 05:27:47;;;;;;;7.72;1.48;;;;;;;12.79;71.68;102613.59;5085725;28;20111;-49
2021/10/11 05:30:13;;;;;;;14.88;1.95;;;;;;;12.76;70.56;102613.91;5073211;28;20139;-49
2021/10/11 05:32:39;;;;;;;10.20;1.92;;;;;;;12.75;70.35;102614.91;5073771;28;20019;-47
2021/10/11 05:35:06;;;;;;;11.05;1.80;;;;;;;12.69;70.62;102616.38;5073290;28;20078;-49
2021/10/11 05:37:31;;;;;;;7.83;1.70;;;;;;;12.63;71.16;102616.13;5055827;28;20040;-50
2021/10/11 05:39:57;;;;;;;8.95;1.80;;;;;;;12.55;72.12;102616.03;5073924;28;20051;-47
2021/10/11 05:42:23;;;;;;;8.90;2.08;;;;;;;12.43;72.54;102618.97;5073951;28;20070;-47
2021/10/11 05:44:48;;;;;;;10.93;2.00;;;;;;;12.37;72.02;102627.63;5073668;28;20498;-48
2021/10/11 05:47:14;;;;;;;13.60;2.35;;;;;;;12.34;72.69;102622.53;5065675;28;20025;-47
2021/10/11 05:49:39;;;;;;;9.80;1.50;;;;;;;12.28;72.44;102625.84;5068858;28;20036;-49
2021/10/11 05:52:05;;;;;;;10.80;1.90;;;;;;;12.28;72.80;102628.56;5071534;28;20585;-47
2021/10/11 05:54:30;;;;;;;11.68;2.10;;;;;;;12.23;73.33;102623.59;5073688;28;20085;-47
2021/10/11 05:56:56;;;;;;;12.13;2.03;;;;;;;12.27;71.76;102626.88;5072490;28;20387;-48
2021/10/11 05:59:21;;;;;;;15.35;1.95;;;;;;;12.28;71.48;102632.09;5069732;28;20032;-47
2021/10/11 06:01:47;;;;;;;11.20;1.80;;;;;;;12.27;72.40;102632.25;5072595;28;20163;-46
2021/10/11 06:04:12;;;;;;;8.55;1.50;;;;;;;12.23;72.62;102628.16;5072676;28;20111;-46
2021/10/11 06:06:37;;;;;;;8.10;1.60;;;;;;;12.21;72.17;102636.38;5072735;28;20386;-46
2021/10/11 06:09:02;;;;;;;8.77;1.77;;;;;;;12.24;72.46;102632.53;5072302;28;20517;-46
2021/10/11 06:11:28;;;;;;;7.50;1.60;;;;;;;12.26;72.61;102627.84;5066594;28;20036;-46
2021/10/11 06:13:53;;;;;;;11.25;1.73;;;;;;;12.25;72.42;102626.16;5071399;28;20031;-47
2021/10/11 06:16:19;;;;;;;13.18;2.22;;;;;;;12.26;72.26;102633.25;5072080;28;20024;-45
2021/10/11 06:18:44;;;;;;;10.23;2.08;;;;;;;12.27;72.11;102640.38;5072097;28;20052;-45
2021/10/11 06:21:09;;;;;;;9.65;2.30;;;;;;;12.26;72.41;102638.66;5064855;28;20068;-45
2021/10/11 06:23:35;;;;;;;14.13;2.28;;;;;;;12.26;71.70;102634.09;5072371;28;20059;-46
2021/10/11 06:26:00;;;;;;;9.75;1.70;;;;;;;12.34;71.46;102640.59;5072058;28;20363;-47
2021/10/11 06:28:25;;;;;;;14.45;2.17;;;;;;;12.40;71.44;102640.88;5071712;28;20032;-48
2021/10/11 06:30:51;;;;;;;14.35;2.47;;;;;;;12.45;71.55;102643.97;5067644;28;20045;-47
2021/10/11 06:33:21;;;;;;;18.55;3.00;;;;;;;12.52;72.00;102634.25;5064564;28;20387;-45
2021/10/11 06:35:46;;;;;;;11.93;2.42;;;;;;;12.53;72.37;102635.09;5064832;28;20028;-46
2021/10/11 06:38:11;;;;;;;14.45;2.00;;;;;;;12.55;73.27;102651.16;5063184;28;20025;-48
2021/10/11 06:40:37;;;;;;;18.00;2.25;;;;;;;12.61;72.42;102650.53;5067822;28;20047;-49
2021/10/11 06:43:02;;;;;;;20.17;2.30;;;;;;;12.64;72.30;102645.69;5061050;28;20458;-47
2021/10/11 06:45:28;;;;;;;8.07;2.22;;;;;;;12.67;72.19;102641.84;5051677;28;20035;-46
2021/10/11 06:47:53;;;;;;;19.30;2.85;;;;;;;12.68;72.44;102654.34;5075524;28;20036;-45
2021/10/11 06:50:18;;;;;;;10.85;2.00;;;;;;;12.77;71.54;102653.44;5056894;28;20025;-46
2021/10/11 06:52:44;;;;;;;11.35;1.55;;;;;;;12.80;71.60;102658.53;5052490;28;20028;-46
2021/10/11 06:55:09;;;;;;;10.73;1.80;;;;;;;12.81;72.18;102654.81;5080287;28;20107;-48
2021/10/11 06:57:34;;;;;;;12.38;1.92;;;;;;;12.85;72.45;102663.47;5074432;28;20193;-47
2021/10/11 07:00:00;;;;;;;17.42;1.90;;;;;;;12.86;72.44;102667.88;5052256;28;20551;-47
2021/10/11 07:02:25;;;;;;;15.85;2.00;;;;;;;12.89;71.75;102665.72;5057965;28;20340;-45
2021/10/11 07:04:56;;;;;;;10.48;2.10;;;;;;;12.96;71.53;102668.69;5058205;28;20103;-48
2021/10/11 07:07:23;;;;;;;11.63;2.03;;;;;;;13.04;70.97;102676.03;5066886;28;20064;-46
2021/10/11 07:09:49;;;;;;;8.00;1.70;;;;;;;13.01;71.79;102670.94;5065211;28;20066;-47
2021/10/11 07:12:14;;;;;;;11.00;1.83;;;;;;;13.01;71.09;102670.94;5072398;28;20035;-48
2021/10/11 07:14:40;;;;;;;10.18;1.60;;;;;;;13.08;70.41;102675.53;5060372;28;20024;-47
2021/10/11 07:17:05;;;;;;;13.02;1.80;;;;;;;13.12;68.80;102678.81;5065628;28;20040;-50
2021/10/11 07:19:31;;;;;;;8.80;1.55;;;;;;;13.18;68.34;102680.88;5057647;28;20029;-46
2021/10/11 07:21:56;;;;;;;11.25;2.00;;;;;;;13.22;68.09;102687.69;5059391;28;20040;-47
2021/10/11 07:24:21;;;;;;;13.00;2.13;;;;;;;13.34;67.54;102678.34;5059716;28;20040;-47
2021/10/11 07:26:47;;;;;;;7.35;1.35;;;;;;;13.42;68.08;102690.25;5066845;28;20208;-48
2021/10/11 07:29:12;;;;;;;8.93;1.30;;;;;;;13.44;67.39;102689.09;5072017;28;20036;-47
2021/10/11 07:31:37;;;;;;;13.95;1.67;;;;;;;13.49;68.05;102688.63;5070023;28;20084;-47
2021/10/11 07:34:05;;;;;;;12.75;2.10;;;;;;;13.49;67.68;102699.47;5058980;28;20131;-49
2021/10/11 07:36:30;;;;;;;9.43;1.65;;;;;;;13.69;67.51;102692.00;5057368;28;20029;-46
2021/10/11 07:38:56;;;;;;;10.43;2.03;;;;;;;13.98;66.16;102687.16;5047200;28;20553;-46
2021/10/11 07:41:21;;;;;;;12.27;1.92;;;;;;;14.12;66.41;102698.41;5070741;28;20437;-46
2021/10/11 07:43:46;;;;;;;12.30;1.98;;;;;;;14.39;65.41;102700.06;5061535;28;20123;-47
2021/10/11 07:46:13;;;;;;;8.48;1.73;;;;;;;15.37;62.82;102703.09;5050070;28;20040;-48
2021/10/11 07:48:38;;;;;;;10.80;2.03;;;;;;;16.48;60.90;102709.75;5070665;28;20111;-47
2021/10/11 07:51:03;;;;;;;9.65;2.47;;;;;;;17.13;57.88;102709.47;5070619;28;20416;-48
2021/10/11 07:53:29;;;;;;;7.43;1.90;;;;;;;17.21;56.68;102706.69;5072440;28;20029;-50
2021/10/11 07:55:54;;;;;;;12.68;2.00;;;;;;;16.90;57.93;102709.44;5074352;28;20056;-47
2021/10/11 07:58:20;;;;;;;8.32;1.80;;;;;;;16.82;56.51;102710.31;5049958;28;20022;-49
2021/10/11 08:00:45;;;;;;;8.00;1.70;;;;;;;17.07;56.90;102718.34;5029357;28;20476;-47
2021/10/11 08:03:11;;;;;;;10.73;2.22;;;;;;;17.00;57.25;102722.81;5058470;28;20357;-46
2021/10/11 08:05:37;;;;;;;8.75;2.15;;;;;;;17.08;57.07;102725.47;5069287;28;20098;-48
2021/10/11 08:08:02;;;;;;;15.38;2.03;;;;;;;17.42;55.61;102724.25;5072162;28;20025;-48
2021/10/11 08:10:28;;;;;;;9.20;1.90;;;;;;;18.08;54.63;102719.94;5042087;28;20079;-49
2021/10/11 08:12:53;;;;;;;6.38;1.83;;;;;;;18.93;53.46;102710.44;5034751;28;20428;-47
2021/10/11 08:15:20;;;;;;;7.47;1.77;;;;;;;20.09;50.49;102712.97;5056011;28;20091;-50
2021/10/11 08:17:46;;;;;;;7.28;1.70;;;;;;;20.98;46.74;102718.50;5092284;28;20048;-48
2021/10/11 08:20:11;;;;;;;8.88;1.98;;;;;;;21.03;48.10;102717.91;5077882;28;20060;-47
2021/10/11 08:22:37;;;;;;;10.30;2.28;;;;;;;21.51;47.31;102715.06;5084850;28;20458;-47
2021/10/11 08:25:03;;;;;;;7.82;1.77;;;;;;;21.81;45.54;102714.66;5082695;28;20035;-46
2021/10/11 08:27:29;;;;;;;9.30;2.23;;;;;;;21.54;46.28;102711.94;5071969;28;20029;-47
2021/10/11 08:29:54;;;;;;;8.13;1.90;;;;;;;21.49;45.19;102722.66;5051601;28;20107;-45
2021/10/11 08:32:24;;;;;;;8.40;1.85;;;;;;;21.95;46.05;102735.53;5085268;28;20043;-48
2021/10/11 08:34:50;;;;;;;8.07;2.00;;;;;;;22.28;43.07;102726.44;5074108;28;20032;-45
2021/10/11 08:37:16;;;;;;;9.57;2.10;;;;;;;21.57;45.38;102727.94;5057012;28;20051;-47
2021/10/11 08:39:41;;;;;;;5.65;1.45;;;;;;;21.38;46.08;102734.22;5072378;28;20594;-48
2021/10/11 08:42:07;;;;;;;11.40;2.03;;;;;;;22.36;43.66;102731.69;5068244;28;20043;-48
2021/10/11 08:44:32;;;;;;;10.60;1.88;;;;;;;22.29;44.96;102730.88;5060343;28;20056;-46
2021/10/11 08:46:59;;;;;;;10.45;1.85;;;;;;;23.10;41.51;102726.78;5069745;28;20020;-47
2021/10/11 08:49:24;;;;;;;9.77;1.73;;;;;;;23.61;40.27;102717.53;5075470;28;20028;-46
2021/10/11 08:51:50;;;;;;;5.88;1.85;;;;;;;23.42;41.35;102722.97;5038603;28;20040;-48
2021/10/11 08:54:15;;;;;;;8.25;1.95;;;;;;;22.89;41.66;102719.69;5074006;28;20100;-48
2021/10/11 08:56:40;;;;;;;7.55;1.80;;;;;;;21.96;43.14;102726.25;5059478;28;20121;-47
2021/10/11 08:59:06;;;;;;;9.25;2.05;;;;;;;20.90;46.35;102726.91;5055068;28;20064;-45
2021/10/11 09:01:32;;;;;;;11.02;2.42;;;;;;;20.19;47.41;102724.41;5059045;28;20124;-46
2021/10/11 09:04:17;;;;;;;9.68;2.05;;;;;;;19.64;50.20;102726.03;5055722;28;20521;-46
2021/10/11 09:07:00;;;;;;;11.27;1.92;;;;;;;19.26;50.66;102731.78;5019255;28;20142;-46
2021/10/11 09:09:25;;;;;;;14.70;2.10;;;;;;;18.81;51.99;102733.78;5053916;28;20032;-46
2021/10/11 09:11:50;;;;;;;12.50;2.10;;;;;;;18.31;54.73;102729.94;5047749;28;20528;-47
2021/10/11 09:14:23;;;;;;;13.23;1.83;;;;;;;17.75;56.13;102742.00;5037050;28;20040;-47
2021/10/11 09:17:03;;;;;;;11.85;1.63;;;;;;;17.34;57.93;102727.88;5054744;28;20017;-50
2021/10/11 09:19:37;;;;;;;8.77;1.80;;;;;;;17.13;57.56;102739.41;5054697;28;20025;-49
2021/10/11 09:22:03;;;;;;;14.35;2.30;;;;;;;16.98;58.20;102739.31;5053853;28;20479;-49
2021/10/11 09:24:29;;;;;;;6.80;1.95;;;;;;;16.78;59.88;102738.91;5056185;28;20428;-51
2021/10/11 09:26:58;;;;;;;7.45;1.33;;;;;;;16.74;58.17;102742.94;5074572;28;20055;-48
2021/10/11 09:29:35;;;;;;;8.35;1.75;;;;;;;16.55;58.84;102743.38;5074512;28;20028;-49
2021/10/11 09:32:07;;;;;;;7.25;1.45;;;;;;;16.40;59.43;102746.84;5055431;28;20106;-47
2021/10/11 09:34:35;;;;;;;7.97;1.52;;;;;;;16.28;59.38;102741.94;5056531;28;20060;-49
2021/10/11 09:37:02;;;;;;;7.10;1.88;;;;;;;16.33;58.96;102740.38;5056092;28;20032;-50
2021/10/11 09:39:30;;;;;;;8.45;1.58;;;;;;;16.44;58.27;102740.00;5056526;28;20364;-48
2021/10/11 09:41:56;;;;;;;6.18;1.48;;;;;;;16.39;59.81;102744.28;5058081;28;20440;-48
2021/10/11 09:44:22;;;;;;;18.92;2.28;;;;;;;16.43;59.20;102746.47;5063225;28;20037;-47
2021/10/11 09:46:51;;;;;;;12.38;2.00;;;;;;;16.57;58.88;102754.94;5036418;28;20025;-47
2021/10/11 09:49:16;;;;;;;9.40;1.75;;;;;;;16.64;58.23;102758.63;5053715;28;20040;-45
2021/10/11 09:51:42;;;;;;;10.70;1.73;;;;;;;16.46;60.31;102759.72;5053535;28;20021;-47
2021/10/11 09:54:07;;;;;;;13.40;2.17;;;;;;;16.06;62.91;102755.22;5054957;28;20053;-48
2021/10/11 09:56:33;;;;;;;10.48;2.35;;;;;;;15.85;65.16;102757.59;5053797;28;20403;-50
2021/10/11 09:59:00;;;;;;;7.85;1.92;;;;;;;15.66;65.00;102761.47;5053803;28;20033;-51
2021/10/11 10:01:26;;;;;;;9.87;1.93;;;;;;;15.42;66.53;102757.69;5039533;28;20025;-49
2021/10/11 10:03:52;;;;;;;9.98;1.73;;;;;;;15.35;65.30;102745.84;5036183;28;20052;-46
2021/10/11 10:06:18;;;;;;;8.77;1.67;;;;;;;15.36;66.90;102742.09;5053397;28;20103;-50
2021/10/11 10:08:47;;;;;;;6.45;1.80;;;;;;;15.56;64.71;102738.06;5035704;28;20028;-47
2021/10/11 10:11:13;;;;;;;5.30;1.45;;;;;;;15.76;65.01;102743.16;5035138;28;20464;-48
2021/10/11 10:13:49;;;;;;;8.05;1.58;;;;;;;15.99;64.45;102737.91;5036651;28;20035;-47
2021/10/11 10:16:14;;;;;;;7.97;1.38;;;;;;;16.28;60.68;102731.91;5053317;28;20118;-49
2021/10/11 10:18:42;;;;;;;5.30;1.27;;;;;;;16.24;60.56;102731.41;5035179;28;20028;-46
2021/10/11 10:21:08;;;;;;;5.78;0.98;;;;;;;16.46;59.49;102742.56;5053268;28;20475;-48
2021/10/11 10:23:44;;;;;;;7.28;1.33;;;;;;;16.37;60.19;102735.44;5054226;28;20108;-48
2021/10/11 10:26:12;;;;;;;8.23;1.38;;;;;;;16.50;59.95;102737.63;5035048;28;20061;-48
2021/10/11 10:28:42;;;;;;;7.32;1.50;;;;;;;16.53;58.19;102739.97;5053161;28;20021;-48
2021/10/11 10:31:08;;;;;;;9.50;1.33;;;;;;;16.57;58.80;102735.91;5052513;28;20403;-46
2021/10/11 10:33:38;;;;;;;7.93;1.33;;;;;;;16.69;60.81;102745.34;5054157;28;20029;-46
2021/10/11 10:36:22;;;;;;;7.70;1.67;;;;;;;17.01;58.13;102738.09;5053099;28;20025;-47
2021/10/11 10:39:05;;;;;;;11.82;1.77;;;;;;;17.19;56.96;102744.09;5052582;28;20083;-49
2021/10/11 10:41:31;;;;;;;11.93;2.50;;;;;;;17.21;56.96;102744.78;5052532;28;20483;-47
2021/10/11 10:44:08;;;;;;;7.22;1.40;;;;;;;17.12;57.80;102735.00;5056647;28;20119;-46
2021/10/11 10:46:33;;;;;;;6.77;1.50;;;;;;;17.24;57.33;102738.13;5054637;28;20519;-46
2021/10/11 10:48:58;;;;;;;10.45;1.48;;;;;;;17.16;55.76;102736.31;5050523;28;20385;-47
2021/10/11 10:51:23;;;;;;;4.93;1.55;;;;;;;17.34;54.67;102739.59;5052438;28;20108;-47
2021/10/11 10:53:54;;;;;;;6.22;1.42;;;;;;;17.42;54.63;102735.97;5061756;28;20482;-49
2021/10/11 10:56:20;;;;;;;10.73;1.40;;;;;;;17.31;54.93;102741.84;5071909;28;20123;-48
2021/10/11 10:58:47;;;;;;;7.70;1.33;;;;;;;17.20;56.26;102734.94;5070833;28;20040;-46
2021/10/11 11:01:12;;;;;;;6.65;1.70;;;;;;;17.23;55.82;102740.00;5035001;28;20060;-49
2021/10/11 11:03:38;;;;;;;9.30;1.70;;;;;;;17.35;55.63;102726.81;5052279;28;20463;-48
2021/10/11 11:06:06;;;;;;;6.45;1.45;;;;;;;17.45;55.74;102730.16;5052268;28;20120;-47
2021/10/11 11:08:31;;;;;;;6.30;1.70;;;;;;;17.52;53.61;102738.47;5046270;28;20027;-47
2021/10/11 11:11:02;;;;;;;7.60;1.70;;;;;;;17.41;55.43;102730.72;5063493;28;20033;-47
2021/10/11 11:13:27;;;;;;;7.20;1.58;;;;;;;17.43;55.39;102732.25;5063765;28;20403;-47
2021/10/11 11:15:52;;;;;;;9.70;1.85;;;;;;;17.58;55.78;102729.56;5072335;28;20035;-48
2021/10/11 11:18:20;;;;;;;9.40;1.95;;;;;;;17.51;54.90;102734.91;5059760;28;20539;-49